Time,TemperatureF,DewpointF,PressureIn,WindDirection,WindDirectionDegrees,WindSpeedMPH,WindSpeedGustMPH,Humidity,HourlyPrecipIn,Conditions,Clouds,dailyrainin,SoftwareType,DateUTC
2013-07-28 00:01:00,58.4,56.4,29.94,WNW,293,0.0,3.1,93,0.00,,,0.00,WUHU216HW,2013-07-28 04:01:00,
2013-07-28 00:05:00,58.4,56.4,29.95,NNW,338,0.0,0.0,93,0.00,,,0.00,WUHU216HW,2013-07-28 04:05:00,
2013-07-28 00:10:00,58.4,56.4,29.95,West,270,0.0,0.0,93,0.00,,,0.00,WUHU216HW,2013-07-28 04:10:00,
2013-07-28 00:15:00,58.4,56.4,29.95,West,270,0.0,0.0,93,0.00,,,0.00,WUHU216HW,2013-07-28 04:15:00,
2013-07-28 00:20:00,58.6,56.6,29.95,NNW,338,0.0,0.0,93,0.00,,,0.00,WUHU216HW,2013-07-28 04:20:00,
2013-07-28 00:25:00,58.4,56.4,29.95,WNW,293,0.0,0.0,93,0.00,,,0.00,WUHU216HW,2013-07-28 04:25:00,
2013-07-28 00:30:00,58.2,56.2,29.94,NE,45,0.0,0.0,93,0.00,,,0.00,WUHU216HW,2013-07-28 04:30:00,
2013-07-28 00:35:00,58.1,56.0,29.95,North,0,0.0,0.0,93,0.00,,,0.00,WUHU216HW,2013-07-28 04:35:00,
2013-07-28 00:40:00,57.9,55.9,29.95,NNW,338,0.0,0.0,93,0.00,,,0.00,WUHU216HW,2013-07-28 04:40:00,
2013-07-28 00:45:00,57.7,55.7,29.94,WSW,248,0.0,0.0,93,0.00,,,0.00,WUHU216HW,2013-07-28 04:45:00,
2013-07-28 00:50:00,57.5,55.5,29.95,WNW,293,0.0,0.0,93,0.00,,,0.00,WUHU216HW,2013-07-28 04:50:00,
2013-07-28 00:56:00,57.5,55.5,29.95,NNE,23,0.0,0.0,93,0.00,,,0.00,WUHU216HW,2013-07-28 04:56:00,
2013-07-28 01:01:00,57.5,55.5,29.95,South,180,0.0,0.0,93,0.00,,,0.00,WUHU216HW,2013-07-28 05:01:00,
2013-07-28 01:06:00,57.5,55.5,29.95,SSW,203,0.0,0.0,93,0.00,,,0.00,WUHU216HW,2013-07-28 05:06:00,
2013-07-28 01:11:00,57.5,55.5,29.94,NW,315,0.0,0.0,93,0.00,,,0.00,WUHU216HW,2013-07-28 05:11:00,
2013-07-28 01:16:00,57.5,55.5,29.94,WSW,248,0.0,0.0,93,0.00,,,0.00,WUHU216HW,2013-07-28 05:16:00,
2013-07-28 01:21:00,57.3,55.3,29.95,ESE,113,0.0,0.0,93,0.00,,,0.00,WUHU216HW,2013-07-28 05:21:00,
2013-07-28 01:26:00,57.2,55.0,29.95,SSW,203,0.0,0.0,93,0.00,,,0.00,WUHU216HW,2013-07-28 05:26:00,
2013-07-28 01:31:00,57.0,55.0,29.95,WNW,293,0.0,0.0,93,0.00,,,0.00,WUHU216HW,2013-07-28 05:31:00,
2013-07-28 01:37:00,56.8,54.8,29.95,NNW,338,0.0,0.0,93,0.00,,,0.00,WUHU216HW,2013-07-28 05:37:00,
2013-07-28 01:42:00,56.4,54.4,29.95,WSW,248,0.0,0.0,93,0.00,,,0.00,WUHU216HW,2013-07-28 05:42:00,
2013-07-28 01:47:00,56.1,54.1,29.94,NE,45,0.0,0.0,93,0.00,,,0.00,WUHU216HW,2013-07-28 05:47:00,
2013-07-28 01:52:00,56.1,54.1,29.94,North,0,0.0,0.0,93,0.00,,,0.00,WUHU216HW,2013-07-28 05:52:00,
2013-07-28 01:57:00,55.9,53.9,29.95,WSW,248,0.0,0.0,93,0.00,,,0.00,WUHU216HW,2013-07-28 05:57:00,
2013-07-28 02:02:00,55.7,53.7,29.95,WSW,248,0.0,0.0,93,0.00,,,0.00,WUHU216HW,2013-07-28 06:02:00,
2013-07-28 02:07:00,55.5,53.5,29.95,SW,225,0.0,0.0,93,0.00,,,0.00,WUHU216HW,2013-07-28 06:07:00,
2013-07-28 02:12:00,55.4,53.3,29.94,West,270,0.0,0.0,93,0.00,,,0.00,WUHU216HW,2013-07-28 06:12:00,
2013-07-28 02:17:00,55.4,53.3,29.94,WSW,248,0.0,0.0,93,0.00,,,0.00,WUHU216HW,2013-07-28 06:17:00,
2013-07-28 02:22:00,55.2,53.2,29.94,NNW,338,0.0,0.0,93,0.00,,,0.00,WUHU216HW,2013-07-28 06:22:00,
2013-07-28 02:27:00,55.2,53.2,29.94,NNE,23,0.0,0.0,93,0.00,,,0.00,WUHU216HW,2013-07-28 06:27:00,
2013-07-28 02:33:00,55.2,53.2,29.94,NW,315,0.0,0.0,93,0.00,,,0.00,WUHU216HW,2013-07-28 06:33:00,
2013-07-28 02:38:00,55.0,53.0,29.94,NW,315,0.0,0.0,93,0.00,,,0.00,WUHU216HW,2013-07-28 06:38:00,
2013-07-28 02:43:00,55.0,53.0,29.94,SE,135,0.0,0.0,93,0.00,,,0.00,WUHU216HW,2013-07-28 06:43:00,
2013-07-28 02:48:00,54.8,52.8,29.94,West,270,0.0,0.0,93,0.00,,,0.00,WUHU216HW,2013-07-28 06:48:00,
2013-07-28 02:53:00,54.8,52.8,29.94,NW,315,0.0,0.0,93,0.00,,,0.00,WUHU216HW,2013-07-28 06:53:00,
2013-07-28 02:58:00,54.6,52.6,29.94,West,270,0.0,0.0,93,0.00,,,0.00,WUHU216HW,2013-07-28 06:58:00,
2013-07-28 03:03:00,54.5,52.4,29.94,NW,315,0.0,0.0,93,0.00,,,0.00,WUHU216HW,2013-07-28 07:03:00,
2013-07-28 03:08:00,54.3,52.3,29.94,East,90,0.0,0.0,93,0.00,,,0.00,WUHU216HW,2013-07-28 07:08:00,
2013-07-28 03:13:00,54.3,52.3,29.94,West,270,0.0,0.0,93,0.00,,,0.00,WUHU216HW,2013-07-28 07:13:00,
2013-07-28 03:18:00,54.3,52.3,29.94,WSW,248,0.0,0.0,93,0.00,,,0.00,WUHU216HW,2013-07-28 07:18:00,
2013-07-28 03:23:00,54.3,52.3,29.95,SW,225,0.0,0.0,93,0.00,,,0.00,WUHU216HW,2013-07-28 07:23:00,
2013-07-28 03:28:00,54.1,52.1,29.95,WSW,248,0.0,0.0,93,0.00,,,0.00,WUHU216HW,2013-07-28 07:28:00,
2013-07-28 03:33:00,53.9,51.9,29.95,West,270,0.0,0.0,93,0.00,,,0.00,WUHU216HW,2013-07-28 07:33:00,
2013-07-28 03:38:00,53.9,51.9,29.95,WNW,293,0.0,0.0,93,0.00,,,0.00,WUHU216HW,2013-07-28 07:38:00,
2013-07-28 03:44:00,53.7,51.7,29.95,SSW,203,0.0,1.5,93,0.00,,,0.00,WUHU216HW,2013-07-28 07:44:00,
2013-07-28 03:49:00,53.7,52.0,29.95,North,0,0.0,1.5,94,0.00,,,0.00,WUHU216HW,2013-07-28 07:49:00,
2013-07-28 03:54:00,53.7,52.0,29.95,ESE,113,0.0,0.0,94,0.00,,,0.00,WUHU216HW,2013-07-28 07:54:00,
2013-07-28 03:59:00,53.6,51.8,29.95,SSW,203,0.0,0.0,94,0.00,,,0.00,WUHU216HW,2013-07-28 07:59:00,
2013-07-28 04:04:00,53.4,51.6,29.95,SW,225,0.0,0.0,94,0.00,,,0.00,WUHU216HW,2013-07-28 08:04:00,
2013-07-28 04:09:00,53.4,51.6,29.95,NW,315,0.0,0.0,94,0.00,,,0.00,WUHU216HW,2013-07-28 08:09:00,
2013-07-28 04:14:00,53.4,51.6,29.95,WSW,248,0.0,0.0,94,0.00,,,0.00,WUHU216HW,2013-07-28 08:14:00,
2013-07-28 04:19:00,53.2,51.5,29.95,West,270,0.0,0.0,94,0.00,,,0.00,WUHU216HW,2013-07-28 08:19:00,
2013-07-28 04:24:00,53.2,51.5,29.95,NW,315,0.0,0.0,94,0.00,,,0.00,WUHU216HW,2013-07-28 08:24:00,
2013-07-28 04:29:00,52.8,51.1,29.95,WSW,248,0.0,0.0,94,0.00,,,0.00,WUHU216HW,2013-07-28 08:29:00,
2013-07-28 04:34:00,52.8,51.1,29.95,West,270,0.0,0.0,94,0.00,,,0.00,WUHU216HW,2013-07-28 08:34:00,
2013-07-28 04:39:00,52.8,51.1,29.95,SW,225,0.0,0.0,94,0.00,,,0.00,WUHU216HW,2013-07-28 08:39:00,
2013-07-28 04:44:00,52.8,51.1,29.95,SE,135,0.0,0.0,94,0.00,,,0.00,WUHU216HW,2013-07-28 08:44:00,
2013-07-28 04:50:00,52.8,51.1,29.95,ESE,113,0.0,0.0,94,0.00,,,0.00,WUHU216HW,2013-07-28 08:50:00,
2013-07-28 04:55:00,52.8,51.1,29.95,SSW,203,0.0,0.0,94,0.00,,,0.00,WUHU216HW,2013-07-28 08:55:00,
2013-07-28 05:00:00,52.8,51.1,29.95,South,180,0.0,0.0,94,0.00,,,0.00,WUHU216HW,2013-07-28 09:00:00,
2013-07-28 05:05:00,52.8,51.1,29.96,West,270,0.0,0.0,94,0.00,,,0.00,WUHU216HW,2013-07-28 09:05:00,
2013-07-28 05:10:00,52.8,51.1,29.95,West,270,0.0,0.0,94,0.00,,,0.00,WUHU216HW,2013-07-28 09:10:00,
2013-07-28 05:15:00,52.8,51.1,29.95,West,270,0.0,0.0,94,0.00,,,0.00,WUHU216HW,2013-07-28 09:15:00,
2013-07-28 05:20:00,52.7,50.9,29.95,NW,315,0.0,0.0,94,0.00,,,0.00,WUHU216HW,2013-07-28 09:20:00,
2013-07-28 05:25:00,52.5,50.7,29.96,SW,225,0.0,0.0,94,0.00,,,0.00,WUHU216HW,2013-07-28 09:25:00,
2013-07-28 05:30:00,52.5,50.7,29.96,North,0,0.0,0.0,94,0.00,,,0.00,WUHU216HW,2013-07-28 09:30:00,
2013-07-28 05:35:00,52.3,50.3,29.96,SW,225,0.0,0.0,93,0.00,,,0.00,WUHU216HW,2013-07-28 09:35:00,
2013-07-28 05:40:00,52.1,50.1,29.96,South,180,0.0,0.0,93,0.00,,,0.00,WUHU216HW,2013-07-28 09:40:00,
2013-07-28 05:45:00,52.1,50.1,29.96,South,180,0.0,0.0,93,0.00,,,0.00,WUHU216HW,2013-07-28 09:45:00,
2013-07-28 05:50:00,51.9,49.9,29.96,WSW,248,0.0,0.0,93,0.00,,,0.00,WUHU216HW,2013-07-28 09:50:00,
2013-07-28 05:55:00,51.9,49.9,29.97,NW,315,0.0,0.0,93,0.00,,,0.00,WUHU216HW,2013-07-28 09:55:00,
2013-07-28 06:01:00,51.9,49.9,29.97,WSW,248,0.0,0.0,93,0.00,,,0.00,WUHU216HW,2013-07-28 10:01:00,
2013-07-28 06:06:00,51.9,49.9,29.97,NNE,23,0.0,0.0,93,0.00,,,0.00,WUHU216HW,2013-07-28 10:06:00,
2013-07-28 06:11:00,51.9,49.9,29.97,WNW,293,0.0,0.0,93,0.00,,,0.00,WUHU216HW,2013-07-28 10:11:00,
2013-07-28 06:16:00,51.9,50.2,29.97,WSW,248,0.0,0.0,94,0.00,,,0.00,WUHU216HW,2013-07-28 10:16:00,
2013-07-28 06:21:00,52.1,50.4,29.97,SSW,203,0.0,0.0,94,0.00,,,0.00,WUHU216HW,2013-07-28 10:21:00,
2013-07-28 06:26:00,52.1,50.4,29.97,North,0,0.0,0.0,94,0.00,,,0.00,WUHU216HW,2013-07-28 10:26:00,
2013-07-28 06:31:00,52.1,50.4,29.97,West,270,0.0,0.0,94,0.00,,,0.00,WUHU216HW,2013-07-28 10:31:00,
2013-07-28 06:36:00,52.3,50.6,29.97,West,270,0.0,0.0,94,0.00,,,0.00,WUHU216HW,2013-07-28 10:36:00,
2013-07-28 06:41:00,52.1,50.4,29.97,West,270,0.0,0.0,94,0.00,,,0.00,WUHU216HW,2013-07-28 10:41:00,
2013-07-28 06:46:00,52.1,50.4,29.97,WSW,248,0.0,0.0,94,0.00,,,0.00,WUHU216HW,2013-07-28 10:46:00,
2013-07-28 06:52:00,52.1,50.4,29.97,SSE,158,0.0,0.0,94,0.00,,,0.00,WUHU216HW,2013-07-28 10:52:00,
2013-07-28 06:57:00,52.3,50.6,29.97,SSE,158,0.0,0.0,94,0.00,,,0.00,WUHU216HW,2013-07-28 10:57:00,
2013-07-28 07:02:00,52.3,50.6,29.97,WNW,293,0.0,0.0,94,0.00,,,0.00,WUHU216HW,2013-07-28 11:02:00,
2013-07-28 07:07:00,52.5,50.7,29.98,SSW,203,0.0,0.0,94,0.00,,,0.00,WUHU216HW,2013-07-28 11:07:00,
2013-07-28 07:12:00,52.7,50.9,29.98,West,270,0.0,0.0,94,0.00,,,0.00,WUHU216HW,2013-07-28 11:12:00,
2013-07-28 07:17:00,52.7,50.9,29.98,NW,315,0.0,0.0,94,0.00,,,0.00,WUHU216HW,2013-07-28 11:17:00,
2013-07-28 07:22:00,53.0,51.3,29.98,SSE,158,0.0,0.0,94,0.00,,,0.00,WUHU216HW,2013-07-28 11:22:00,
2013-07-28 07:27:00,53.2,51.5,29.99,North,0,0.0,0.0,94,0.00,,,0.00,WUHU216HW,2013-07-28 11:27:00,
2013-07-28 07:32:00,53.4,51.6,29.99,SSE,158,0.0,0.0,94,0.00,,,0.00,WUHU216HW,2013-07-28 11:32:00,
2013-07-28 07:37:00,53.9,52.2,29.99,South,180,0.0,0.0,94,0.00,,,0.00,WUHU216HW,2013-07-28 11:37:00,
2013-07-28 07:42:00,54.1,52.2,29.99,SW,225,0.0,0.0,94,0.00,,,0.00,WUHU216HW,2013-07-28 11:42:00,
2013-07-28 07:47:00,54.3,52.5,29.99,NNW,338,0.0,0.0,94,0.00,,,0.00,WUHU216HW,2013-07-28 11:47:00,
2013-07-28 07:52:00,54.5,52.7,29.99,South,180,0.0,0.0,94,0.00,,,0.00,WUHU216HW,2013-07-28 11:52:00,
2013-07-28 07:57:00,54.5,52.7,29.99,SSE,158,0.0,0.0,94,0.00,,,0.00,WUHU216HW,2013-07-28 11:57:00,
2013-07-28 08:03:00,54.5,52.7,29.99,SW,225,0.0,0.0,94,0.00,,,0.00,WUHU216HW,2013-07-28 12:03:00,
2013-07-28 08:08:00,54.5,52.7,29.99,West,270,0.0,0.0,94,0.00,,,0.00,WUHU216HW,2013-07-28 12:08:00,
2013-07-28 08:13:00,54.6,52.9,29.99,SE,135,0.0,0.0,94,0.00,,,0.00,WUHU216HW,2013-07-28 12:13:00,
2013-07-28 08:18:00,54.8,53.1,29.99,WSW,248,0.0,0.0,94,0.00,,,0.00,WUHU216HW,2013-07-28 12:18:00,
2013-07-28 08:23:00,55.0,53.3,29.99,SW,225,0.0,0.0,94,0.00,,,0.00,WUHU216HW,2013-07-28 12:23:00,
2013-07-28 08:28:00,55.2,53.2,30.00,NW,315,0.0,0.0,93,0.00,,,0.00,WUHU216HW,2013-07-28 12:28:00,
2013-07-28 08:33:00,56.1,54.1,29.99,North,0,0.0,0.0,93,0.00,,,0.00,WUHU216HW,2013-07-28 12:33:00,
2013-07-28 08:38:00,56.4,54.4,29.99,SE,135,0.0,3.1,93,0.00,,,0.00,WUHU216HW,2013-07-28 12:38:00,
2013-07-28 08:43:00,56.8,54.5,30.00,North,0,0.0,3.1,92,0.00,,,0.00,WUHU216HW,2013-07-28 12:43:00,
2013-07-28 08:48:00,57.3,54.7,29.99,West,270,0.0,0.0,91,0.00,,,0.00,WUHU216HW,2013-07-28 12:48:00,
2013-07-28 08:53:00,58.1,55.7,29.99,NNE,23,0.0,0.0,92,0.00,,,0.00,WUHU216HW,2013-07-28 12:53:00,
2013-07-28 08:58:00,58.8,56.2,29.99,ENE,68,0.0,0.0,91,0.00,,,0.00,WUHU216HW,2013-07-28 12:58:00,
2013-07-28 09:03:00,59.1,56.3,29.99,SW,225,1.5,1.5,90,0.00,,,0.00,WUHU216HW,2013-07-28 13:03:00,
2013-07-28 09:09:00,59.1,55.9,30.00,SSW,203,0.0,1.5,89,0.00,,,0.00,WUHU216HW,2013-07-28 13:09:00,
2013-07-28 09:14:00,59.3,55.8,30.00,SSE,158,0.0,1.5,88,0.00,,,0.00,WUHU216HW,2013-07-28 13:14:00,
2013-07-28 09:19:00,59.5,55.6,29.99,SSW,203,0.0,0.0,87,0.00,,,0.00,WUHU216HW,2013-07-28 13:19:00,
2013-07-28 09:24:00,59.9,56.0,30.00,SSE,158,2.6,2.6,87,0.00,,,0.00,WUHU216HW,2013-07-28 13:24:00,
2013-07-28 09:29:00,60.0,55.5,30.00,SSW,203,0.0,2.6,85,0.00,,,0.00,WUHU216HW,2013-07-28 13:29:00,
2013-07-28 09:34:00,60.4,56.2,30.00,West,270,0.0,0.0,86,0.00,,,0.00,WUHU216HW,2013-07-28 13:34:00,
2013-07-28 09:39:00,60.4,55.6,30.00,SSW,203,0.0,0.0,84,0.00,,,0.00,WUHU216HW,2013-07-28 13:39:00,
2013-07-28 09:44:00,60.6,55.7,30.01,NW,315,0.0,0.0,84,0.00,,,0.00,WUHU216HW,2013-07-28 13:44:00,
2013-07-28 09:49:00,60.6,55.7,30.01,WSW,248,0.0,0.0,84,0.00,,,0.00,WUHU216HW,2013-07-28 13:49:00,
2013-07-28 09:54:00,60.9,56.1,30.00,SW,225,0.0,0.0,84,0.00,,,0.00,WUHU216HW,2013-07-28 13:54:00,
2013-07-28 09:59:00,61.3,56.4,30.00,West,270,0.0,0.0,84,0.00,,,0.00,WUHU216HW,2013-07-28 13:59:00,
2013-07-28 10:04:00,61.5,55.6,30.01,West,270,0.0,0.0,81,0.00,,,0.00,WUHU216HW,2013-07-28 14:04:00,
2013-07-28 10:09:00,61.7,55.8,30.00,SSW,203,0.0,0.0,81,0.00,,,0.00,WUHU216HW,2013-07-28 14:09:00,
2013-07-28 10:15:00,61.5,55.3,30.00,WSW,248,0.0,0.0,80,0.00,,,0.00,WUHU216HW,2013-07-28 14:15:00,
2013-07-28 10:20:00,61.8,55.9,30.00,North,0,0.0,0.0,81,0.00,,,0.00,WUHU216HW,2013-07-28 14:20:00,
2013-07-28 10:25:00,63.1,56.4,30.00,SSW,203,0.0,0.0,79,0.00,,,0.00,WUHU216HW,2013-07-28 14:25:00,
2013-07-28 10:30:00,63.3,56.3,30.00,WSW,248,0.0,0.0,78,0.00,,,0.00,WUHU216HW,2013-07-28 14:30:00,
2013-07-28 10:35:00,64.0,57.0,29.99,SSW,203,5.1,5.1,78,0.00,,,0.00,WUHU216HW,2013-07-28 14:35:00,
2013-07-28 10:40:00,64.7,56.6,29.99,SW,225,2.6,5.1,75,0.00,,,0.00,WUHU216HW,2013-07-28 14:40:00,
2013-07-28 10:45:00,65.1,56.6,29.99,SSE,158,1.3,5.8,74,0.00,,,0.00,WUHU216HW,2013-07-28 14:45:00,
2013-07-28 10:50:00,65.8,57.2,29.99,NNW,338,0.0,5.8,74,0.00,,,0.00,WUHU216HW,2013-07-28 14:50:00,
2013-07-28 10:55:00,66.3,57.0,30.00,SE,135,3.8,3.8,72,0.00,,,0.00,WUHU216HW,2013-07-28 14:55:00,
2013-07-28 11:00:00,66.5,56.8,29.99,SSW,203,5.5,5.5,71,0.00,,,0.00,WUHU216HW,2013-07-28 15:00:00,
2013-07-28 11:05:00,67.2,57.2,30.00,WSW,248,0.0,5.5,70,0.00,,,0.00,WUHU216HW,2013-07-28 15:05:00,
2013-07-28 11:10:00,68.1,57.2,30.00,South,180,0.0,8.2,68,0.00,,,0.00,WUHU216HW,2013-07-28 15:10:00,
2013-07-28 11:15:00,70.5,58.1,30.01,SSW,203,0.0,8.2,65,0.00,,,0.00,WUHU216HW,2013-07-28 15:15:00,
2013-07-28 11:21:00,71.2,57.7,30.01,SW,225,3.5,6.9,62,0.00,,,0.00,WUHU216HW,2013-07-28 15:21:00,
2013-07-28 11:26:00,71.9,57.7,30.02,SSE,158,4.0,6.9,61,0.00,,,0.00,WUHU216HW,2013-07-28 15:26:00,
2013-07-28 11:31:00,71.2,57.1,30.01,South,180,0.0,5.8,61,0.00,,,0.00,WUHU216HW,2013-07-28 15:31:00,
2013-07-28 11:36:00,70.8,56.7,30.01,WSW,248,0.0,5.8,61,0.00,,,0.00,WUHU216HW,2013-07-28 15:36:00,
2013-07-28 11:41:00,70.7,56.7,30.01,SE,135,0.0,0.0,61,0.00,,,0.00,WUHU216HW,2013-07-28 15:41:00,
2013-07-28 11:46:00,72.5,57.8,30.01,South,180,0.0,1.1,60,0.00,,,0.00,WUHU216HW,2013-07-28 15:46:00,
2013-07-28 11:52:00,74.6,58.8,30.01,SW,225,0.0,1.1,58,0.00,,,0.00,WUHU216HW,2013-07-28 15:52:00,
2013-07-28 11:57:00,77.5,58.0,30.02,SSW,203,7.1,7.6,51,0.00,,,0.00,WUHU216HW,2013-07-28 15:57:00,
2013-07-28 12:02:00,75.3,56.0,30.02,SW,225,2.2,7.6,51,0.00,,,0.00,WUHU216HW,2013-07-28 16:02:00,
2013-07-28 12:07:00,71.9,54.3,30.02,SSE,158,0.0,7.1,54,0.00,,,0.00,WUHU216HW,2013-07-28 16:07:00,
2013-07-28 12:12:00,70.8,54.8,30.02,ESE,113,0.0,4.6,57,0.00,,,0.00,WUHU216HW,2013-07-28 16:12:00,
2013-07-28 12:17:00,71.7,55.6,30.02,SE,135,0.0,0.0,57,0.00,,,0.00,WUHU216HW,2013-07-28 16:17:00,
2013-07-28 12:22:00,73.2,54.9,30.02,SSW,203,10.5,10.5,53,0.00,,,0.00,WUHU216HW,2013-07-28 16:22:00,
2013-07-28 12:27:00,73.0,55.2,30.02,WSW,248,0.0,10.5,54,0.00,,,0.00,WUHU216HW,2013-07-28 16:27:00,
2013-07-28 12:32:00,73.2,55.4,30.02,South,180,2.2,10.5,54,0.00,,,0.00,WUHU216HW,2013-07-28 16:32:00,
2013-07-28 12:37:00,73.5,55.7,30.02,ENE,68,0.0,2.6,54,0.00,,,0.00,WUHU216HW,2013-07-28 16:37:00,
2013-07-28 12:42:00,74.1,55.8,30.02,NW,315,0.0,0.0,53,0.00,,,0.00,WUHU216HW,2013-07-28 16:42:00,
2013-07-28 12:47:00,74.4,55.1,30.02,ESE,113,0.0,0.0,51,0.00,,,0.00,WUHU216HW,2013-07-28 16:47:00,
2013-07-28 12:52:00,74.8,55.0,30.02,SW,225,0.0,0.0,50,0.00,,,0.00,WUHU216HW,2013-07-28 16:52:00,
2013-07-28 12:57:00,76.1,54.9,30.02,SW,225,5.5,5.5,48,0.00,,,0.00,WUHU216HW,2013-07-28 16:57:00,
2013-07-28 13:02:00,75.0,54.6,30.02,SSW,203,2.4,5.5,49,0.00,,,0.00,WUHU216HW,2013-07-28 17:02:00,
2013-07-28 13:07:00,73.2,53.4,30.02,SSE,158,3.5,5.5,50,0.00,,,0.00,WUHU216HW,2013-07-28 17:07:00,
2013-07-28 13:12:00,71.7,53.1,30.02,South,180,0.0,3.5,52,0.00,,,0.00,WUHU216HW,2013-07-28 17:12:00,
2013-07-28 13:17:00,71.7,53.1,30.01,SSE,158,4.4,4.4,52,0.00,,,0.00,WUHU216HW,2013-07-28 17:17:00,
2013-07-28 13:23:00,73.4,54.1,30.01,SSE,158,4.4,7.6,51,0.00,,,0.00,WUHU216HW,2013-07-28 17:23:00,
2013-07-28 13:28:00,74.3,54.5,30.01,SSW,203,0.0,7.6,50,0.00,,,0.00,WUHU216HW,2013-07-28 17:28:00,
2013-07-28 13:33:00,74.3,53.2,30.01,SE,135,9.1,9.1,48,0.00,,,0.00,WUHU216HW,2013-07-28 17:33:00,
2013-07-28 13:38:00,75.0,54.6,30.01,SSE,158,2.0,9.1,49,0.00,,,0.00,WUHU216HW,2013-07-28 17:38:00,
2013-07-28 13:43:00,76.4,54.6,30.01,West,270,1.7,3.8,47,0.00,,,0.00,WUHU216HW,2013-07-28 17:43:00,
2013-07-28 13:48:00,77.1,55.3,30.01,SSE,158,5.1,5.1,47,0.00,,,0.00,WUHU216HW,2013-07-28 17:48:00,
2013-07-28 13:53:00,75.9,54.2,30.01,South,180,8.0,10.7,47,0.00,,,0.00,WUHU216HW,2013-07-28 17:53:00,
2013-07-28 13:58:00,74.6,53.6,30.01,SSW,203,0.0,10.7,48,0.00,,,0.00,WUHU216HW,2013-07-28 17:58:00,
2013-07-28 14:03:00,73.7,53.9,30.01,WSW,248,0.0,8.0,50,0.00,,,0.00,WUHU216HW,2013-07-28 18:03:00,
2013-07-28 14:08:00,75.0,54.6,30.01,SSW,203,0.0,5.8,49,0.00,,,0.00,WUHU216HW,2013-07-28 18:08:00,
2013-07-28 14:13:00,72.3,53.1,30.01,South,180,0.0,0.0,49,0.00,,,0.00,WUHU216HW,2013-07-28 18:13:00,
2013-07-28 14:18:00,70.3,52.3,30.01,SSE,158,0.8,0.8,53,0.00,,,0.00,WUHU216HW,2013-07-28 18:18:00,
2013-07-28 14:24:00,69.0,52.1,30.01,SSE,158,0.0,0.8,55,0.00,,,0.00,WUHU216HW,2013-07-28 18:24:00,
2013-07-28 14:29:00,68.7,51.8,30.01,SSE,158,3.5,5.3,56,0.00,,,0.00,WUHU216HW,2013-07-28 18:29:00,
2013-07-28 14:34:00,67.8,52.4,30.01,SSE,158,8.2,8.2,58,0.00,,,0.00,WUHU216HW,2013-07-28 18:34:00,
2013-07-28 14:39:00,67.1,52.3,30.01,SSE,158,4.9,8.2,59,0.00,,,0.00,WUHU216HW,2013-07-28 18:39:00,
2013-07-28 14:44:00,67.1,53.2,30.01,SSE,158,4.4,8.2,61,0.00,,,0.00,WUHU216HW,2013-07-28 18:44:00,
2013-07-28 14:49:00,66.7,52.8,30.02,WSW,248,1.5,4.9,61,0.00,,,0.00,WUHU216HW,2013-07-28 18:49:00,
2013-07-28 14:54:00,65.3,52.7,30.02,South,180,2.9,11.8,64,0.00,,,0.00,WUHU216HW,2013-07-28 18:54:00,
2013-07-28 14:59:00,63.1,52.8,30.02,SSE,158,0.0,11.8,69,0.00,,,0.00,WUHU216HW,2013-07-28 18:59:00,
2013-07-28 15:04:00,61.5,52.4,30.02,ESE,113,2.9,2.9,72,0.00,,,0.00,WUHU216HW,2013-07-28 19:04:00,
2013-07-28 15:09:00,60.6,52.7,30.02,SE,135,1.3,4.9,75,0.00,,,0.00,WUHU216HW,2013-07-28 19:09:00,
2013-07-28 15:14:00,61.7,54.4,30.02,SSE,158,11.1,11.1,77,0.00,,,0.00,WUHU216HW,2013-07-28 19:14:00,
2013-07-28 15:19:00,63.1,55.4,30.02,South,180,4.4,11.1,76,0.00,,,0.00,WUHU216HW,2013-07-28 19:19:00,
2013-07-28 15:24:00,65.4,56.2,30.02,SSE,158,13.8,14.0,72,0.00,,,0.00,WUHU216HW,2013-07-28 19:24:00,
2013-07-28 15:29:00,66.7,56.2,30.01,South,180,5.3,14.0,69,0.00,,,0.00,WUHU216HW,2013-07-28 19:29:00,
2013-07-28 15:34:00,65.4,55.4,30.02,SSE,158,18.1,18.1,70,0.00,,,0.00,WUHU216HW,2013-07-28 19:34:00,
2013-07-28 15:39:00,64.2,54.3,30.02,South,180,6.7,18.1,70,0.00,,,0.00,WUHU216HW,2013-07-28 19:39:00,
2013-07-28 15:44:00,63.6,54.1,30.02,SSE,158,12.7,15.6,71,0.00,,,0.00,WUHU216HW,2013-07-28 19:44:00,
2013-07-28 15:50:00,62.7,54.6,30.02,SSE,158,4.4,14.5,75,0.00,,,0.00,WUHU216HW,2013-07-28 19:50:00,
2013-07-28 15:55:00,60.9,53.7,30.03,SSE,158,0.0,6.4,77,0.00,,,0.00,WUHU216HW,2013-07-28 19:55:00,
2013-07-28 16:00:00,60.0,53.6,30.02,SW,225,3.8,6.4,79,0.00,,,0.00,WUHU216HW,2013-07-28 20:00:00,
2013-07-28 16:05:00,59.7,53.9,30.03,SW,225,3.8,3.8,81,0.00,,,0.00,WUHU216HW,2013-07-28 20:05:00,
2013-07-28 16:10:00,59.5,54.3,30.03,South,180,0.0,3.8,83,0.00,,,0.00,WUHU216HW,2013-07-28 20:10:00,
2013-07-28 16:15:00,59.7,54.7,30.03,SSE,158,0.0,7.1,84,0.00,,,0.00,WUHU216HW,2013-07-28 20:15:00,
2013-07-28 16:20:00,60.0,55.2,30.03,West,270,0.0,7.1,84,0.00,,,0.00,WUHU216HW,2013-07-28 20:20:00,
2013-07-28 16:25:00,61.3,56.1,30.02,South,180,0.0,1.5,83,0.00,,,0.00,WUHU216HW,2013-07-28 20:25:00,
2013-07-28 16:30:00,63.1,57.1,30.03,West,270,0.0,1.5,82,0.00,,,0.00,WUHU216HW,2013-07-28 20:30:00,
2013-07-28 16:35:00,64.2,57.9,30.02,SE,135,1.3,1.3,80,0.00,,,0.00,WUHU216HW,2013-07-28 20:35:00,
2013-07-28 16:40:00,65.6,58.6,30.02,WSW,248,0.0,1.3,78,0.00,,,0.00,WUHU216HW,2013-07-28 20:40:00,
2013-07-28 16:45:00,66.2,58.0,30.02,SW,225,0.0,2.2,75,0.00,,,0.00,WUHU216HW,2013-07-28 20:45:00,
2013-07-28 16:50:00,66.5,58.3,30.02,SW,225,0.0,2.2,75,0.00,,,0.00,WUHU216HW,2013-07-28 20:50:00,
2013-07-28 16:55:00,66.5,57.9,30.02,SSE,158,4.6,4.6,74,0.00,,,0.00,WUHU216HW,2013-07-28 20:55:00,
2013-07-28 17:00:00,66.5,57.6,30.02,SE,135,3.1,7.8,73,0.00,,,0.00,WUHU216HW,2013-07-28 21:00:00,
2013-07-28 17:05:00,65.4,56.9,30.02,SSE,158,10.5,10.5,74,0.00,,,0.00,WUHU216HW,2013-07-28 21:05:00,
2013-07-28 17:11:00,66.9,57.9,30.02,SSE,158,6.2,10.5,73,0.00,,,0.00,WUHU216HW,2013-07-28 21:11:00,
2013-07-28 17:16:00,70.3,58.3,30.02,SSE,158,12.0,12.0,66,0.00,,,0.00,WUHU216HW,2013-07-28 21:16:00,
2013-07-28 17:21:00,70.8,58.0,30.02,SSE,158,9.3,12.0,64,0.00,,,0.00,WUHU216HW,2013-07-28 21:21:00,
2013-07-28 17:26:00,69.6,56.4,30.02,SSE,158,12.3,12.3,63,0.00,,,0.00,WUHU216HW,2013-07-28 21:26:00,
2013-07-28 17:31:00,66.7,55.4,30.02,SSE,158,8.0,12.3,66,0.00,,,0.00,WUHU216HW,2013-07-28 21:31:00,
2013-07-28 17:37:00,65.8,54.9,30.03,West,270,0.0,9.6,68,0.00,,,0.00,WUHU216HW,2013-07-28 21:37:00,
2013-07-28 17:42:00,64.9,55.7,30.03,West,270,0.0,0.0,72,0.00,,,0.00,WUHU216HW,2013-07-28 21:42:00,
2013-07-28 17:47:00,64.5,55.7,30.04,West,270,0.0,0.0,73,0.00,,,0.00,WUHU216HW,2013-07-28 21:47:00,
2013-07-28 17:52:00,63.6,55.2,30.04,WSW,248,0.0,0.0,74,0.00,,,0.00,WUHU216HW,2013-07-28 21:52:00,
2013-07-28 17:57:00,62.2,53.8,30.04,WNW,293,0.0,0.0,74,0.00,,,0.00,WUHU216HW,2013-07-28 21:57:00,
2013-07-28 18:02:00,60.2,53.0,30.04,WNW,293,0.0,3.8,76,0.00,,,0.00,WUHU216HW,2013-07-28 22:02:00,
2013-07-28 18:07:00,58.8,51.6,30.05,SSW,203,0.0,3.8,77,0.00,,,0.00,WUHU216HW,2013-07-28 22:07:00,
2013-07-28 18:12:00,57.7,51.2,30.06,South,180,0.0,0.0,79,0.00,,,0.00,WUHU216HW,2013-07-28 22:12:00,
2013-07-28 18:17:00,57.0,51.2,30.06,SSW,203,0.0,0.0,81,0.00,,,0.00,WUHU216HW,2013-07-28 22:17:00,
2013-07-28 18:22:00,56.3,50.8,30.07,South,180,0.0,0.0,82,0.00,,,0.00,WUHU216HW,2013-07-28 22:22:00,
2013-07-28 18:27:00,55.9,51.1,30.07,SSW,203,0.0,0.0,84,0.00,,,0.00,WUHU216HW,2013-07-28 22:27:00,
2013-07-28 18:33:00,55.9,51.4,30.07,SSW,203,0.0,0.0,85,0.00,,,0.00,WUHU216HW,2013-07-28 22:33:00,
2013-07-28 18:38:00,55.9,51.4,30.07,South,180,0.0,0.0,85,0.00,,,0.00,WUHU216HW,2013-07-28 22:38:00,
2013-07-28 18:43:00,55.9,51.7,30.06,SSW,203,0.0,0.0,86,0.00,,,0.00,WUHU216HW,2013-07-28 22:43:00,
2013-07-28 18:48:00,56.4,52.4,30.06,South,180,0.0,0.0,87,0.00,,,0.00,WUHU216HW,2013-07-28 22:48:00,
2013-07-28 18:53:00,57.0,53.1,30.06,WSW,248,0.0,0.0,87,0.00,,,0.00,WUHU216HW,2013-07-28 22:53:00,
2013-07-28 18:58:00,57.9,54.3,30.07,SSE,158,4.2,4.2,88,0.00,,,0.00,WUHU216HW,2013-07-28 22:58:00,
2013-07-28 19:03:00,59.0,54.8,30.06,SSE,158,4.4,4.6,86,0.00,,,0.00,WUHU216HW,2013-07-28 23:03:00,
2013-07-28 19:08:00,59.5,55.0,30.05,SE,135,3.3,5.3,85,0.00,,,0.00,WUHU216HW,2013-07-28 23:08:00,
2013-07-28 19:13:00,60.4,55.6,30.06,SSW,203,0.0,5.3,84,0.00,,,0.00,WUHU216HW,2013-07-28 23:13:00,
2013-07-28 19:18:00,60.4,55.6,30.06,SSW,203,0.0,4.9,84,0.00,,,0.00,WUHU216HW,2013-07-28 23:18:00,
2013-07-28 19:23:00,60.6,55.7,30.06,SSE,158,0.0,4.6,84,0.00,,,0.00,WUHU216HW,2013-07-28 23:23:00,
2013-07-28 19:28:00,60.6,55.7,30.06,WSW,248,0.0,0.0,84,0.00,,,0.00,WUHU216HW,2013-07-28 23:28:00,
2013-07-28 19:33:00,60.9,56.1,30.06,SW,225,0.0,0.0,84,0.00,,,0.00,WUHU216HW,2013-07-28 23:33:00,
2013-07-28 19:38:00,61.3,56.4,30.06,SSW,203,0.0,0.0,84,0.00,,,0.00,WUHU216HW,2013-07-28 23:38:00,
2013-07-28 19:44:00,61.5,56.3,30.06,SSE,158,0.0,0.0,83,0.00,,,0.00,WUHU216HW,2013-07-28 23:44:00,
2013-07-28 19:49:00,61.5,56.3,30.06,SE,135,0.0,0.0,83,0.00,,,0.00,WUHU216HW,2013-07-28 23:49:00,
2013-07-28 19:54:00,61.3,55.8,30.07,SW,225,0.0,0.0,82,0.00,,,0.00,WUHU216HW,2013-07-28 23:54:00,
2013-07-28 19:59:00,60.9,55.1,30.06,SSE,158,0.0,0.0,81,0.00,,,0.00,WUHU216HW,2013-07-28 23:59:00,
2013-07-28 20:04:00,60.4,54.6,30.07,South,180,0.0,0.0,81,0.00,,,0.00,WUHU216HW,2013-07-29 00:04:00,
2013-07-28 20:09:00,59.9,54.4,30.07,SW,225,0.0,0.0,82,0.00,,,0.00,WUHU216HW,2013-07-29 00:09:00,
2013-07-28 20:14:00,59.1,54.0,30.07,SW,225,0.0,0.0,83,0.00,,,0.00,WUHU216HW,2013-07-29 00:14:00,
2013-07-28 20:19:00,58.8,53.9,30.07,SW,225,0.0,0.0,84,0.00,,,0.00,WUHU216HW,2013-07-29 00:19:00,
2013-07-28 20:24:00,58.4,53.9,30.07,West,270,0.0,0.0,85,0.00,,,0.00,WUHU216HW,2013-07-29 00:24:00,
2013-07-28 20:29:00,58.1,53.6,30.07,WSW,248,0.0,0.0,85,0.00,,,0.00,WUHU216HW,2013-07-29 00:29:00,
2013-07-28 20:34:00,57.9,53.7,30.07,South,180,0.0,0.0,86,0.00,,,0.00,WUHU216HW,2013-07-29 00:34:00,
2013-07-28 20:39:00,57.3,53.2,30.07,WSW,248,0.0,0.0,86,0.00,,,0.00,WUHU216HW,2013-07-29 00:39:00,
2013-07-28 20:40:00,57.3,53.2,30.07,WSW,248,0.0,0.0,86,0.00,,,0.00,WUHU216HW,2013-07-29 00:40:00,
2013-07-28 20:45:00,57.2,53.0,30.07,South,180,0.0,0.0,86,0.00,,,0.00,WUHU216HW,2013-07-29 00:45:00,
2013-07-28 20:50:00,57.0,52.8,30.07,South,180,0.0,0.0,86,0.00,,,0.00,WUHU216HW,2013-07-29 00:50:00,
2013-07-28 20:55:00,56.8,52.9,30.07,South,180,0.0,0.0,87,0.00,,,0.00,WUHU216HW,2013-07-29 00:55:00,
2013-07-28 21:00:00,56.4,52.6,30.08,SW,225,0.0,0.0,87,0.00,,,0.00,WUHU216HW,2013-07-29 01:00:00,
2013-07-28 21:05:00,56.3,52.4,30.08,South,180,0.0,0.0,87,0.00,,,0.00,WUHU216HW,2013-07-29 01:05:00,
2013-07-28 21:10:00,56.1,52.5,30.07,WSW,248,0.0,0.0,88,0.00,,,0.00,WUHU216HW,2013-07-29 01:10:00,
2013-07-28 21:15:00,56.1,52.5,30.07,West,270,0.0,0.0,88,0.00,,,0.00,WUHU216HW,2013-07-29 01:15:00,
2013-07-28 21:20:00,55.9,52.4,30.08,WSW,248,0.0,0.0,88,0.00,,,0.00,WUHU216HW,2013-07-29 01:20:00,
2013-07-28 21:25:00,55.7,52.2,30.08,South,180,0.0,0.0,88,0.00,,,0.00,WUHU216HW,2013-07-29 01:25:00,
2013-07-28 21:30:00,55.5,52.3,30.08,South,180,0.0,0.0,89,0.00,,,0.00,WUHU216HW,2013-07-29 01:30:00,
2013-07-28 21:36:00,55.5,52.3,30.08,West,270,0.0,0.0,89,0.00,,,0.00,WUHU216HW,2013-07-29 01:36:00,
2013-07-28 21:41:00,55.5,52.3,30.08,West,270,0.0,0.0,89,0.00,,,0.00,WUHU216HW,2013-07-29 01:41:00,
2013-07-28 21:46:00,55.4,52.1,30.08,SSW,203,0.0,0.0,89,0.00,,,0.00,WUHU216HW,2013-07-29 01:46:00,
2013-07-28 21:51:00,55.4,52.1,30.08,SSW,203,0.0,0.0,89,0.00,,,0.00,WUHU216HW,2013-07-29 01:51:00,
2013-07-28 21:56:00,55.2,52.3,30.08,West,270,0.0,0.0,90,0.00,,,0.00,WUHU216HW,2013-07-29 01:56:00,
2013-07-28 22:02:00,55.2,52.3,30.08,West,270,0.0,0.0,90,0.00,,,0.00,WUHU216HW,2013-07-29 02:02:00,
2013-07-28 22:07:00,55.2,52.3,30.09,West,270,0.0,0.0,90,0.00,,,0.00,WUHU216HW,2013-07-29 02:07:00,
2013-07-28 22:12:00,55.0,52.1,30.08,West,270,0.0,0.0,90,0.00,,,0.00,WUHU216HW,2013-07-29 02:12:00,
2013-07-28 22:17:00,54.8,51.9,30.09,WSW,248,0.0,0.0,90,0.00,,,0.00,WUHU216HW,2013-07-29 02:17:00,
2013-07-28 22:22:00,54.6,51.8,30.09,WSW,248,0.0,0.0,90,0.00,,,0.00,WUHU216HW,2013-07-29 02:22:00,
2013-07-28 22:27:00,54.3,51.4,30.10,WSW,248,0.0,0.0,90,0.00,,,0.00,WUHU216HW,2013-07-29 02:27:00,
2013-07-28 22:33:00,54.3,51.4,30.10,NW,315,0.0,0.0,90,0.00,,,0.00,WUHU216HW,2013-07-29 02:33:00,
2013-07-28 22:38:00,54.3,51.4,30.10,West,270,0.0,0.0,90,0.00,,,0.00,WUHU216HW,2013-07-29 02:38:00,
2013-07-28 22:43:00,54.3,51.4,30.09,NW,315,0.0,3.5,90,0.00,,,0.00,WUHU216HW,2013-07-29 02:43:00,
2013-07-28 22:48:00,54.3,51.4,30.09,North,0,0.0,3.5,90,0.00,,,0.00,WUHU216HW,2013-07-29 02:48:00,
2013-07-28 22:53:00,54.3,51.7,30.09,NNW,338,0.0,0.0,91,0.00,,,0.00,WUHU216HW,2013-07-29 02:53:00,
2013-07-28 22:58:00,54.3,51.7,30.10,WSW,248,0.0,0.0,91,0.00,,,0.00,WUHU216HW,2013-07-29 02:58:00,
2013-07-28 23:03:00,54.3,51.7,30.10,NNE,23,0.0,0.0,91,0.00,,,0.00,WUHU216HW,2013-07-29 03:03:00,
2013-07-28 23:09:00,54.3,51.7,30.10,ENE,68,0.0,0.0,91,0.00,,,0.00,WUHU216HW,2013-07-29 03:09:00,
2013-07-28 23:14:00,54.3,51.7,30.10,ENE,68,0.0,0.0,91,0.00,,,0.00,WUHU216HW,2013-07-29 03:14:00,
2013-07-28 23:20:00,54.1,51.5,30.10,ENE,68,0.0,0.0,91,0.00,,,0.00,WUHU216HW,2013-07-29 03:20:00,
2013-07-28 23:25:00,53.9,51.3,30.10,West,270,0.0,0.0,91,0.00,,,0.00,WUHU216HW,2013-07-29 03:25:00,
2013-07-28 23:30:00,53.9,51.3,30.10,West,270,0.0,0.0,91,0.00,,,0.00,WUHU216HW,2013-07-29 03:30:00,
2013-07-28 23:35:00,53.7,51.1,30.10,South,180,0.0,0.0,91,0.00,,,0.00,WUHU216HW,2013-07-29 03:35:00,
2013-07-28 23:40:00,53.4,50.8,30.10,West,270,0.0,0.0,91,0.00,,,0.00,WUHU216HW,2013-07-29 03:40:00,
2013-07-28 23:45:00,53.2,50.6,30.10,WNW,293,0.0,0.0,91,0.00,,,0.00,WUHU216HW,2013-07-29 03:45:00,
2013-07-28 23:50:00,52.8,50.2,30.10,West,270,0.0,0.0,91,0.00,,,0.00,WUHU216HW,2013-07-29 03:50:00,
2013-07-28 23:55:00,52.8,50.2,30.10,West,270,0.0,0.0,91,0.00,,,0.00,WUHU216HW,2013-07-29 03:55:00,